sensor_id;sensor_type;location;lat;lon;timestamp;pressure;altitude;pressure_sealevel;temperature;humidity
50933;BME280;36921;49.006;9.292;2023-03-01T00:01:07;99579.19;;;-1.67;100.00
50933;BME280;36921;49.006;9.292;2023-03-01T00:03:33;99586.81;;;-1.63;100.00
50933;BME280;36921;49.006;9.292;2023-03-01T00:06:00;99592.56;;;-1.69;100.00
50933;BME280;36921;49.006;9.292;2023-03-01T00:08:25;99584.72;;;-1.83;100.00
50933;BME280;36921;49.006;9.292;2023-03-01T00:11:21;99598.69;;;-1.94;100.00
50933;BME280;36921;49.006;9.292;2023-03-01T00:13:49;99597.19;;;-2.11;100.00
50933;BME280;36921;49.006;9.292;2023-03-01T00:16:24;99602.69;;;-2.14;100.00
50933;BME280;36921;49.006;9.292;2023-03-01T00:18:49;99596.31;;;-2.24;100.00
50933;BME280;36921;49.006;9.292;2023-03-01T00:21:16;99601.72;;;-2.26;100.00
50933;BME280;36921;49.006;9.292;2023-03-01T00:23:42;99606.47;;;-2.31;100.00
50933;BME280;36921;49.006;9.292;2023-03-01T00:26:10;99606.59;;;-2.32;100.00
50933;BME280;36921;49.006;9.292;2023-03-01T00:28:35;99605.41;;;-2.28;100.00
50933;BME280;36921;49.006;9.292;2023-03-01T00:31:06;99606.66;;;-2.34;100.00
50933;BME280;36921;49.006;9.292;2023-03-01T00:33:32;99610.28;;;-2.35;100.00
50933;BME280;36921;49.006;9.292;2023-03-01T00:35:58;99608.56;;;-2.36;100.00
50933;BME280;36921;49.006;9.292;2023-03-01T00:38:24;99616.63;;;-2.37;100.00
50933;BME280;36921;49.006;9.292;2023-03-01T00:40:49;99607.28;;;-2.43;100.00
50933;BME280;36921;49.006;9.292;2023-03-01T00:43:14;99610.88;;;-2.44;100.00
50933;BME280;36921;49.006;9.292;2023-03-01T00:45:41;99604.09;;;-2.48;100.00
50933;BME280;36921;49.006;9.292;2023-03-01T00:48:07;99607.50;;;-2.46;100.00
50933;BME280;36921;49.006;9.292;2023-03-01T00:50:32;99612.81;;;-2.46;100.00
50933;BME280;36921;49.006;9.292;2023-03-01T00:52:57;99602.50;;;-2.51;100.00
50933;BME280;36921;49.006;9.292;2023-03-01T00:55:23;99606.97;;;-2.51;100.00
50933;BME280;36921;49.006;9.292;2023-03-01T00:57:49;99601.75;;;-2.53;100.00
50933;BME280;36921;49.006;9.292;2023-03-01T01:00:15;99609.22;;;-2.59;100.00
50933;BME280;36921;49.006;9.292;2023-03-01T01:02:40;99601.50;;;-2.62;100.00
50933;BME280;36921;49.006;9.292;2023-03-01T01:05:06;99600.44;;;-2.60;100.00
50933;BME280;36921;49.006;9.292;2023-03-01T01:07:31;99607.25;;;-2.56;100.00
50933;BME280;36921;49.006;9.292;2023-03-01T01:09:57;99608.31;;;-2.58;100.00
50933;BME280;36921;49.006;9.292;2023-03-01T01:12:22;99607.66;;;-2.62;100.00
50933;BME280;36921;49.006;9.292;2023-03-01T01:14:47;99608.84;;;-2.53;100.00
50933;BME280;36921;49.006;9.292;2023-03-01T01:17:13;99602.00;;;-2.43;100.00
50933;BME280;36921;49.006;9.292;2023-03-01T01:19:38;99607.63;;;-2.35;100.00
50933;BME280;36921;49.006;9.292;2023-03-01T01:22:04;99592.50;;;-2.33;100.00
50933;BME280;36921;49.006;9.292;2023-03-01T01:24:30;99586.84;;;-2.41;100.00
50933;BME280;36921;49.006;9.292;2023-03-01T01:26:55;99587.00;;;-2.17;100.00
50933;BME280;36921;49.006;9.292;2023-03-01T01:29:21;99584.03;;;-2.25;100.00
50933;BME280;36921;49.006;9.292;2023-03-01T01:31:46;99580.41;;;-2.24;100.00
50933;BME280;36921;49.006;9.292;2023-03-01T01:34:18;99575.22;;;-2.13;100.00
50933;BME280;36921;49.006;9.292;2023-03-01T01:36:47;99572.16;;;-2.19;100.00
50933;BME280;36921;49.006;9.292;2023-03-01T01:39:13;99572.13;;;-2.32;100.00
50933;BME280;36921;49.006;9.292;2023-03-01T01:41:40;99568.44;;;-2.30;100.00
50933;BME280;36921;49.006;9.292;2023-03-01T01:44:17;99556.88;;;-2.29;100.00
50933;BME280;36921;49.006;9.292;2023-03-01T01:46:44;99566.19;;;-2.23;100.00
50933;BME280;36921;49.006;9.292;2023-03-01T01:49:26;99567.56;;;-2.17;100.00
50933;BME280;36921;49.006;9.292;2023-03-01T01:52:00;99561.56;;;-2.07;100.00
50933;BME280;36921;49.006;9.292;2023-03-01T01:54:37;99561.69;;;-1.95;100.00
50933;BME280;36921;49.006;9.292;2023-03-01T01:57:07;99555.94;;;-1.89;100.00
50933;BME280;36921;49.006;9.292;2023-03-01T01:59:33;99559.56;;;-1.78;100.00
50933;BME280;36921;49.006;9.292;2023-03-01T02:02:00;99543.75;;;-1.79;100.00
50933;BME280;36921;49.006;9.292;2023-03-01T02:04:28;99545.78;;;-1.83;100.00
50933;BME280;36921;49.006;9.292;2023-03-01T02:07:18;99537.59;;;-1.80;100.00
50933;BME280;36921;49.006;9.292;2023-03-01T02:09:49;99532.50;;;-1.83;100.00
50933;BME280;36921;49.006;9.292;2023-03-01T02:12:17;99526.25;;;-1.82;100.00
50933;BME280;36921;49.006;9.292;2023-03-01T02:14:43;99527.84;;;-1.79;100.00
50933;BME280;36921;49.006;9.292;2023-03-01T02:17:10;99523.19;;;-1.88;100.00
50933;BME280;36921;49.006;9.292;2023-03-01T02:20:21;99517.66;;;-1.85;100.00
50933;BME280;36921;49.006;9.292;2023-03-01T02:22:46;99516.28;;;-1.78;100.00
50933;BME280;36921;49.006;9.292;2023-03-01T02:30:27;99499.16;;;-1.48;100.00
50933;BME280;36921;49.006;9.292;2023-03-01T02:32:54;99495.81;;;-1.39;100.00
50933;BME280;36921;49.006;9.292;2023-03-01T02:35:32;99496.13;;;-1.31;100.00
50933;BME280;36921;49.006;9.292;2023-03-01T02:38:00;99492.19;;;-1.25;100.00
50933;BME280;36921;49.006;9.292;2023-03-01T02:40:28;99488.00;;;-1.17;100.00
50933;BME280;36921;49.006;9.292;2023-03-01T02:42:58;99485.13;;;-1.14;100.00
50933;BME280;36921;49.006;9.292;2023-03-01T02:45:25;99487.31;;;-1.07;100.00
50933;BME280;36921;49.006;9.292;2023-03-01T02:47:54;99478.41;;;-1.06;100.00
50933;BME280;36921;49.006;9.292;2023-03-01T02:55:41;99464.59;;;-0.88;100.00
50933;BME280;36921;49.006;9.292;2023-03-01T02:58:07;99482.13;;;-0.85;100.00
50933;BME280;36921;49.006;9.292;2023-03-01T03:00:36;99480.72;;;-0.78;100.00
50933;BME280;36921;49.006;9.292;2023-03-01T03:03:05;99473.69;;;-0.79;100.00
50933;BME280;36921;49.006;9.292;2023-03-01T03:05:31;99479.81;;;-0.65;100.00
50933;BME280;36921;49.006;9.292;2023-03-01T03:07:59;99478.81;;;-0.64;100.00
50933;BME280;36921;49.006;9.292;2023-03-01T03:10:30;99475.19;;;-0.63;100.00
50933;BME280;36921;49.006;9.292;2023-03-01T03:13:02;99469.88;;;-0.63;100.00
50933;BME280;36921;49.006;9.292;2023-03-01T03:15:28;99467.97;;;-0.61;100.00
50933;BME280;36921;49.006;9.292;2023-03-01T03:17:55;99465.69;;;-0.55;100.00
50933;BME280;36921;49.006;9.292;2023-03-01T03:20:22;99468.34;;;-0.55;100.00
50933;BME280;36921;49.006;9.292;2023-03-01T03:22:50;99460.72;;;-0.59;100.00
50933;BME280;36921;49.006;9.292;2023-03-01T03:25:17;99460.88;;;-0.50;100.00
50933;BME280;36921;49.006;9.292;2023-03-01T03:27:44;99459.06;;;-0.49;100.00
50933;BME280;36921;49.006;9.292;2023-03-01T03:30:12;99462.31;;;-0.46;100.00
50933;BME280;36921;49.006;9.292;2023-03-01T03:32:40;99463.88;;;-0.54;100.00
50933;BME280;36921;49.006;9.292;2023-03-01T03:35:07;99460.00;;;-0.50;100.00
50933;BME280;36921;49.006;9.292;2023-03-01T03:37:40;99458.81;;;-0.57;100.00
50933;BME280;36921;49.006;9.292;2023-03-01T03:42:56;99451.41;;;-0.65;100.00
50933;BME280;36921;49.006;9.292;2023-03-01T03:45:22;99443.03;;;-0.72;100.00
50933;BME280;36921;49.006;9.292;2023-03-01T03:47:47;99447.78;;;-0.64;100.00
50933;BME280;36921;49.006;9.292;2023-03-01T03:50:15;99451.00;;;-0.72;100.00
50933;BME280;36921;49.006;9.292;2023-03-01T03:52:43;99439.78;;;-0.75;100.00
50933;BME280;36921;49.006;9.292;2023-03-01T03:55:10;99439.28;;;-0.80;100.00
50933;BME280;36921;49.006;9.292;2023-03-01T03:57:40;99431.88;;;-0.88;100.00
50933;BME280;36921;49.006;9.292;2023-03-01T04:00:11;99438.16;;;-0.89;100.00
50933;BME280;36921;49.006;9.292;2023-03-01T04:02:42;99437.88;;;-0.97;100.00
50933;BME280;36921;49.006;9.292;2023-03-01T04:05:10;99439.31;;;-1.04;100.00
50933;BME280;36921;49.006;9.292;2023-03-01T04:07:36;99430.44;;;-1.16;100.00
50933;BME280;36921;49.006;9.292;2023-03-01T04:10:06;99431.69;;;-1.33;100.00
50933;BME280;36921;49.006;9.292;2023-03-01T04:12:33;99442.44;;;-1.47;100.00
50933;BME280;36921;49.006;9.292;2023-03-01T04:15:00;99438.25;;;-1.63;100.00
50933;BME280;36921;49.006;9.292;2023-03-01T04:17:26;99430.00;;;-1.71;100.00
50933;BME280;36921;49.006;9.292;2023-03-01T04:19:51;99438.94;;;-1.85;100.00
50933;BME280;36921;49.006;9.292;2023-03-01T04:22:17;99440.88;;;-2.00;100.00
50933;BME280;36921;49.006;9.292;2023-03-01T04:24:44;99435.25;;;-2.08;100.00
50933;BME280;36921;49.006;9.292;2023-03-01T04:27:10;99434.63;;;-2.24;100.00
50933;BME280;36921;49.006;9.292;2023-03-01T04:29:35;99416.84;;;-2.35;100.00
50933;BME280;36921;49.006;9.292;2023-03-01T04:32:00;99415.25;;;-2.37;100.00
50933;BME280;36921;49.006;9.292;2023-03-01T04:34:26;99427.13;;;-2.30;100.00
50933;BME280;36921;49.006;9.292;2023-03-01T04:36:52;99432.31;;;-2.29;100.00
50933;BME280;36921;49.006;9.292;2023-03-01T04:39:17;99422.13;;;-2.35;100.00
50933;BME280;36921;49.006;9.292;2023-03-01T04:41:42;99414.19;;;-2.48;100.00
50933;BME280;36921;49.006;9.292;2023-03-01T04:44:08;99423.81;;;-2.47;100.00
50933;BME280;36921;49.006;9.292;2023-03-01T04:46:35;99441.53;;;-2.47;100.00
50933;BME280;36921;49.006;9.292;2023-03-01T04:49:02;99442.56;;;-2.50;100.00
50933;BME280;36921;49.006;9.292;2023-03-01T04:51:27;99433.88;;;-2.52;100.00
50933;BME280;36921;49.006;9.292;2023-03-01T04:53:52;99440.97;;;-2.65;100.00
50933;BME280;36921;49.006;9.292;2023-03-01T04:56:18;99443.81;;;-2.68;100.00
50933;BME280;36921;49.006;9.292;2023-03-01T04:58:57;99440.75;;;-2.75;100.00
50933;BME280;36921;49.006;9.292;2023-03-01T05:01:26;99451.91;;;-2.70;100.00
50933;BME280;36921;49.006;9.292;2023-03-01T05:03:52;99437.78;;;-2.70;100.00
50933;BME280;36921;49.006;9.292;2023-03-01T05:06:19;99455.47;;;-2.71;100.00
50933;BME280;36921;49.006;9.292;2023-03-01T05:08:56;99448.03;;;-2.78;100.00
50933;BME280;36921;49.006;9.292;2023-03-01T05:11:21;99456.31;;;-2.70;100.00
50933;BME280;36921;49.006;9.292;2023-03-01T05:16:53;99448.03;;;-2.78;100.00
50933;BME280;36921;49.006;9.292;2023-03-01T05:19:19;99446.66;;;-2.84;100.00
50933;BME280;36921;49.006;9.292;2023-03-01T05:21:48;99447.84;;;-2.88;100.00
50933;BME280;36921;49.006;9.292;2023-03-01T05:24:34;99442.13;;;-2.82;100.00
50933;BME280;36921;49.006;9.292;2023-03-01T05:27:00;99428.75;;;-2.93;100.00
50933;BME280;36921;49.006;9.292;2023-03-01T05:29:28;99439.34;;;-2.93;100.00
50933;BME280;36921;49.006;9.292;2023-03-01T05:31:59;99451.00;;;-2.96;100.00
50933;BME280;36921;49.006;9.292;2023-03-01T05:34:27;99440.94;;;-2.91;100.00
50933;BME280;36921;49.006;9.292;2023-03-01T05:36:53;99441.13;;;-2.94;100.00
50933;BME280;36921;49.006;9.292;2023-03-01T05:39:23;99440.19;;;-2.93;100.00
50933;BME280;36921;49.006;9.292;2023-03-01T05:41:54;99444.72;;;-2.95;100.00
50933;BME280;36921;49.006;9.292;2023-03-01T05:44:20;99436.59;;;-2.92;100.00
50933;BME280;36921;49.006;9.292;2023-03-01T05:46:46;99433.63;;;-2.87;100.00
50933;BME280;36921;49.006;9.292;2023-03-01T05:49:12;99439.56;;;-2.83;100.00
50933;BME280;36921;49.006;9.292;2023-03-01T05:51:39;99441.28;;;-2.82;100.00
50933;BME280;36921;49.006;9.292;2023-03-01T05:54:05;99434.19;;;-2.69;100.00
50933;BME280;36921;49.006;9.292;2023-03-01T05:56:33;99439.94;;;-2.50;100.00
50933;BME280;36921;49.006;9.292;2023-03-01T05:59:00;99437.38;;;-2.38;100.00
50933;BME280;36921;49.006;9.292;2023-03-01T06:01:26;99437.72;;;-2.30;100.00
50933;BME280;36921;49.006;9.292;2023-03-01T06:03:51;99439.50;;;-2.18;100.00
50933;BME280;36921;49.006;9.292;2023-03-01T06:06:17;99433.03;;;-2.14;100.00
50933;BME280;36921;49.006;9.292;2023-03-01T06:08:43;99433.66;;;-2.10;100.00
50933;BME280;36921;49.006;9.292;2023-03-01T06:11:08;99433.97;;;-2.02;100.00
50933;BME280;36921;49.006;9.292;2023-03-01T06:13:34;99433.88;;;-2.01;100.00
50933;BME280;36921;49.006;9.292;2023-03-01T06:15:59;99431.31;;;-1.89;100.00
50933;BME280;36921;49.006;9.292;2023-03-01T06:18:25;99432.66;;;-1.84;100.00
50933;BME280;36921;49.006;9.292;2023-03-01T06:20:54;99426.97;;;-1.90;100.00
50933;BME280;36921;49.006;9.292;2023-03-01T06:23:20;99429.41;;;-1.87;100.00
50933;BME280;36921;49.006;9.292;2023-03-01T06:25:46;99435.31;;;-1.84;100.00
50933;BME280;36921;49.006;9.292;2023-03-01T06:28:11;99429.16;;;-1.71;100.00
50933;BME280;36921;49.006;9.292;2023-03-01T06:30:36;99431.72;;;-1.70;100.00
50933;BME280;36921;49.006;9.292;2023-03-01T06:33:02;99439.31;;;-1.65;100.00
50933;BME280;36921;49.006;9.292;2023-03-01T06:35:32;99434.88;;;-1.65;100.00
50933;BME280;36921;49.006;9.292;2023-03-01T06:37:59;99428.50;;;-1.62;100.00
50933;BME280;36921;49.006;9.292;2023-03-01T06:40:24;99427.00;;;-0.70;100.00
50933;BME280;36921;49.006;9.292;2023-03-01T06:42:50;99417.22;;;0.65;100.00
50933;BME280;36921;49.006;9.292;2023-03-01T06:45:19;99413.69;;;2.02;100.00
50933;BME280;36921;49.006;9.292;2023-03-01T06:47:44;99418.59;;;3.07;100.00
50933;BME280;36921;49.006;9.292;2023-03-01T06:50:10;99410.63;;;3.73;100.00
50933;BME280;36921;49.006;9.292;2023-03-01T06:52:36;99417.00;;;4.00;100.00
50933;BME280;36921;49.006;9.292;2023-03-01T06:55:02;99415.31;;;4.82;98.33
50933;BME280;36921;49.006;9.292;2023-03-01T06:57:27;99418.84;;;4.65;91.25
50933;BME280;36921;49.006;9.292;2023-03-01T06:59:53;99406.31;;;5.19;85.51
50933;BME280;36921;49.006;9.292;2023-03-01T07:02:19;99415.28;;;5.71;81.16
50933;BME280;36921;49.006;9.292;2023-03-01T07:04:44;99405.31;;;6.42;75.23
50933;BME280;36921;49.006;9.292;2023-03-01T07:07:12;99397.56;;;7.14;72.39
50933;BME280;36921;49.006;9.292;2023-03-01T07:09:38;99395.81;;;6.72;69.02
50933;BME280;36921;49.006;9.292;2023-03-01T07:12:04;99397.22;;;7.17;67.36
50933;BME280;36921;49.006;9.292;2023-03-01T07:14:30;99389.06;;;8.07;65.15
50933;BME280;36921;49.006;9.292;2023-03-01T07:16:56;99387.09;;;8.80;63.79
50933;BME280;36921;49.006;9.292;2023-03-01T07:19:22;99389.41;;;8.60;61.04
50933;BME280;36921;49.006;9.292;2023-03-01T07:21:47;99390.91;;;8.94;59.80
50933;BME280;36921;49.006;9.292;2023-03-01T07:24:13;99384.50;;;9.56;57.26
50933;BME280;36921;49.006;9.292;2023-03-01T07:26:39;99387.91;;;8.89;57.84
50933;BME280;36921;49.006;9.292;2023-03-01T07:29:06;99381.44;;;10.12;55.02
50933;BME280;36921;49.006;9.292;2023-03-01T07:31:32;99378.91;;;10.10;54.65
50933;BME280;36921;49.006;9.292;2023-03-01T07:33:58;99374.63;;;10.01;53.13
50933;BME280;36921;49.006;9.292;2023-03-01T07:36:24;99380.91;;;10.31;52.02
50933;BME280;36921;49.006;9.292;2023-03-01T07:38:50;99385.34;;;10.09;52.32
50933;BME280;36921;49.006;9.292;2023-03-01T07:41:15;99379.47;;;10.20;51.01
50933;BME280;36921;49.006;9.292;2023-03-01T07:43:41;99382.28;;;10.57;51.31
50933;BME280;36921;49.006;9.292;2023-03-01T07:46:06;99372.97;;;10.81;50.01
50933;BME280;36921;49.006;9.292;2023-03-01T07:48:32;99380.38;;;11.08;49.35
50933;BME280;36921;49.006;9.292;2023-03-01T07:51:02;99368.03;;;11.49;47.80
50933;BME280;36921;49.006;9.292;2023-03-01T07:53:29;99371.69;;;11.62;47.78
50933;BME280;36921;49.006;9.292;2023-03-01T07:56:04;99361.78;;;11.05;47.57
50933;BME280;36921;49.006;9.292;2023-03-01T07:58:30;99360.53;;;12.00;46.06
50933;BME280;36921;49.006;9.292;2023-03-01T08:00:55;99359.91;;;12.94;44.17
50933;BME280;36921;49.006;9.292;2023-03-01T08:03:21;99360.47;;;12.77;44.66
50933;BME280;36921;49.006;9.292;2023-03-01T08:05:46;99264.44;;;12.23;43.64
50933;BME280;36921;49.006;9.292;2023-03-01T08:08:11;99308.69;;;14.05;42.18
50933;BME280;36921;49.006;9.292;2023-03-01T08:10:37;99341.53;;;14.16;42.17
50933;BME280;36921;49.006;9.292;2023-03-01T08:13:02;99342.59;;;14.09;40.80
50933;BME280;36921;49.006;9.292;2023-03-01T08:15:28;99323.00;;;15.22;40.17
50933;BME280;36921;49.006;9.292;2023-03-01T08:17:53;99326.63;;;15.16;39.22
50933;BME280;36921;49.006;9.292;2023-03-01T08:20:18;99318.66;;;14.82;38.91
50933;BME280;36921;49.006;9.292;2023-03-01T08:22:43;99314.81;;;15.78;38.36
50933;BME280;36921;49.006;9.292;2023-03-01T08:25:09;99331.16;;;16.40;37.47
50933;BME280;36921;49.006;9.292;2023-03-01T08:27:34;99336.84;;;17.60;36.21
50933;BME280;36921;49.006;9.292;2023-03-01T08:30:00;99330.00;;;17.27;35.34
50933;BME280;36921;49.006;9.292;2023-03-01T08:32:25;99325.38;;;16.67;36.08
50933;BME280;36921;49.006;9.292;2023-03-01T08:34:50;99336.03;;;16.87;36.08
50933;BME280;36921;49.006;9.292;2023-03-01T08:37:16;99331.38;;;16.20;36.56
50933;BME280;36921;49.006;9.292;2023-03-01T08:39:41;99331.94;;;15.61;37.20
50933;BME280;36921;49.006;9.292;2023-03-01T08:42:06;99314.69;;;15.92;36.85
50933;BME280;36921;49.006;9.292;2023-03-01T08:44:32;99293.16;;;16.39;36.51
50933;BME280;36921;49.006;9.292;2023-03-01T08:46:57;99310.00;;;16.17;37.02
50933;BME280;36921;49.006;9.292;2023-03-01T08:49:23;99309.03;;;17.09;36.01
50933;BME280;36921;49.006;9.292;2023-03-01T08:51:48;99319.28;;;17.25;34.80
50933;BME280;36921;49.006;9.292;2023-03-01T08:54:19;99325.59;;;17.26;34.96
50933;BME280;36921;49.006;9.292;2023-03-01T08:56:45;99291.72;;;16.18;35.58
50933;BME280;36921;49.006;9.292;2023-03-01T08:59:15;99318.13;;;16.91;35.48
50933;BME280;36921;49.006;9.292;2023-03-01T09:01:41;99327.75;;;16.94;35.69
50933;BME280;36921;49.006;9.292;2023-03-01T09:04:09;99323.16;;;17.48;35.05
50933;BME280;36921;49.006;9.292;2023-03-01T09:06:36;99317.81;;;17.53;34.69
50933;BME280;36921;49.006;9.292;2023-03-01T09:09:02;99322.28;;;18.42;33.62
50933;BME280;36921;49.006;9.292;2023-03-01T09:11:28;99300.66;;;19.26;33.44
50933;BME280;36921;49.006;9.292;2023-03-01T09:13:55;99298.56;;;17.71;33.51
50933;BME280;36921;49.006;9.292;2023-03-01T09:16:22;99303.31;;;19.21;32.04
50933;BME280;36921;49.006;9.292;2023-03-01T09:18:54;99285.53;;;19.23;32.78
50933;BME280;36921;49.006;9.292;2023-03-01T09:21:21;99278.63;;;18.35;32.86
50933;BME280;36921;49.006;9.292;2023-03-01T09:23:48;99271.13;;;19.16;32.67
50933;BME280;36921;49.006;9.292;2023-03-01T09:26:16;99273.97;;;20.11;32.22
50933;BME280;36921;49.006;9.292;2023-03-01T09:28:44;99277.88;;;20.59;31.26
50933;BME280;36921;49.006;9.292;2023-03-01T09:31:10;99275.31;;;20.74;31.19
50933;BME280;36921;49.006;9.292;2023-03-01T09:33:38;99266.50;;;20.28;31.43
50933;BME280;36921;49.006;9.292;2023-03-01T09:36:07;99279.47;;;20.77;31.10
50933;BME280;36921;49.006;9.292;2023-03-01T09:38:33;99275.84;;;19.88;31.71
50933;BME280;36921;49.006;9.292;2023-03-01T09:41:00;99262.25;;;19.60;31.71
50933;BME280;36921;49.006;9.292;2023-03-01T09:43:46;99271.47;;;20.53;31.21
50933;BME280;36921;49.006;9.292;2023-03-01T09:46:14;99263.88;;;19.95;31.55
50933;BME280;36921;49.006;9.292;2023-03-01T09:48:50;99252.84;;;20.55;30.48
50933;BME280;36921;49.006;9.292;2023-03-01T09:51:24;99233.81;;;20.05;30.84
50933;BME280;36921;49.006;9.292;2023-03-01T09:53:51;99242.03;;;21.03;30.25
50933;BME280;36921;49.006;9.292;2023-03-01T09:56:23;99256.28;;;20.02;30.27
50933;BME280;36921;49.006;9.292;2023-03-01T10:01:32;99254.69;;;20.06;31.06
50933;BME280;36921;49.006;9.292;2023-03-01T10:04:08;99257.22;;;19.57;31.56
50933;BME280;36921;49.006;9.292;2023-03-01T10:06:39;99241.59;;;19.74;31.28
50933;BME280;36921;49.006;9.292;2023-03-01T10:09:10;99246.63;;;20.43;31.00
50933;BME280;36921;49.006;9.292;2023-03-01T10:11:39;99238.94;;;20.01;30.70
50933;BME280;36921;49.006;9.292;2023-03-01T10:17:02;99239.53;;;20.96;30.27
50933;BME280;36921;49.006;9.292;2023-03-01T10:19:44;99230.78;;;21.74;29.43
50933;BME280;36921;49.006;9.292;2023-03-01T10:22:17;99232.00;;;20.87;30.45
50933;BME280;36921;49.006;9.292;2023-03-01T10:24:46;99215.47;;;21.46;29.87
50933;BME280;36921;49.006;9.292;2023-03-01T10:27:29;99221.56;;;21.53;30.01
50933;BME280;36921;49.006;9.292;2023-03-01T10:30:06;99219.84;;;21.10;29.90
50933;BME280;36921;49.006;9.292;2023-03-01T10:32:36;99192.66;;;22.08;29.13
50933;BME280;36921;49.006;9.292;2023-03-01T10:35:15;99206.03;;;20.77;29.85
50933;BME280;36921;49.006;9.292;2023-03-01T10:37:57;99206.44;;;22.03;28.92
50933;BME280;36921;49.006;9.292;2023-03-01T10:40:22;99198.03;;;20.00;30.62
50933;BME280;36921;49.006;9.292;2023-03-01T10:42:48;99195.84;;;21.05;30.80
50933;BME280;36921;49.006;9.292;2023-03-01T10:45:34;99150.94;;;20.13;30.32
50933;BME280;36921;49.006;9.292;2023-03-01T10:48:10;99177.16;;;21.39;30.57
50933;BME280;36921;49.006;9.292;2023-03-01T10:50:38;99198.34;;;20.52;30.96
50933;BME280;36921;49.006;9.292;2023-03-01T10:53:05;99171.28;;;22.31;29.08
50933;BME280;36921;49.006;9.292;2023-03-01T10:55:40;99158.31;;;22.26;29.10
50933;BME280;36921;49.006;9.292;2023-03-01T10:58:20;99176.09;;;23.12;28.61
50933;BME280;36921;49.006;9.292;2023-03-01T11:03:19;99163.25;;;21.61;30.02
50933;BME280;36921;49.006;9.292;2023-03-01T11:05:58;99180.22;;;21.11;29.65
50933;BME280;36921;49.006;9.292;2023-03-01T11:08:47;99170.47;;;21.73;29.22
50933;BME280;36921;49.006;9.292;2023-03-01T11:11:21;99164.16;;;22.66;28.45
50933;BME280;36921;49.006;9.292;2023-03-01T11:13:58;99156.78;;;23.02;28.72
50933;BME280;36921;49.006;9.292;2023-03-01T11:16:33;99129.84;;;23.84;28.13
50933;BME280;36921;49.006;9.292;2023-03-01T11:19:12;99156.59;;;21.52;29.19
50933;BME280;36921;49.006;9.292;2023-03-01T11:24:32;99128.97;;;22.00;29.21
50933;BME280;36921;49.006;9.292;2023-03-01T11:27:02;99143.22;;;21.76;29.28
50933;BME280;36921;49.006;9.292;2023-03-01T11:29:42;99149.31;;;21.36;29.33
50933;BME280;36921;49.006;9.292;2023-03-01T11:32:10;99123.19;;;21.91;29.10
50933;BME280;36921;49.006;9.292;2023-03-01T11:34:42;99103.94;;;22.06;28.93
50933;BME280;36921;49.006;9.292;2023-03-01T11:40:25;99107.91;;;23.13;28.48
50933;BME280;36921;49.006;9.292;2023-03-01T11:43:16;99106.47;;;23.41;28.07
50933;BME280;36921;49.006;9.292;2023-03-01T11:51:00;99102.72;;;21.77;29.06
50933;BME280;36921;49.006;9.292;2023-03-01T11:53:50;99101.53;;;22.20;29.28
50933;BME280;36921;49.006;9.292;2023-03-01T11:56:34;99097.88;;;22.04;29.44
50933;BME280;36921;49.006;9.292;2023-03-01T11:59:10;99072.88;;;22.47;29.00
50933;BME280;36921;49.006;9.292;2023-03-01T12:01:54;99080.03;;;22.94;29.10
50933;BME280;36921;49.006;9.292;2023-03-01T12:07:24;99077.03;;;22.70;29.56
50933;BME280;36921;49.006;9.292;2023-03-01T12:24:04;99036.19;;;20.20;30.88
50933;BME280;36921;49.006;9.292;2023-03-01T12:26:53;99035.44;;;21.52;30.34
50933;BME280;36921;49.006;9.292;2023-03-01T12:29:34;99046.19;;;20.04;31.72
50933;BME280;36921;49.006;9.292;2023-03-01T12:35:06;99029.63;;;19.72;32.38
50933;BME280;36921;49.006;9.292;2023-03-01T12:46:26;99025.94;;;19.39;31.89
50933;BME280;36921;49.006;9.292;2023-03-01T12:49:14;99018.66;;;20.26;31.08
50933;BME280;36921;49.006;9.292;2023-03-01T12:51:46;99005.81;;;20.05;32.37
50933;BME280;36921;49.006;9.292;2023-03-01T12:54:16;99006.03;;;19.98;32.04
50933;BME280;36921;49.006;9.292;2023-03-01T12:56:46;98989.63;;;18.88;32.85
50933;BME280;36921;49.006;9.292;2023-03-01T13:02:39;98997.69;;;18.61;33.12
50933;BME280;36921;49.006;9.292;2023-03-01T13:07:40;98987.13;;;19.53;32.87
50933;BME280;36921;49.006;9.292;2023-03-01T13:10:17;98973.22;;;18.93;33.08
50933;BME280;36921;49.006;9.292;2023-03-01T13:28:40;98976.41;;;17.84;34.44
50933;BME280;36921;49.006;9.292;2023-03-01T13:33:56;98959.06;;;17.78;34.63
50933;BME280;36921;49.006;9.292;2023-03-01T13:46:46;98955.88;;;17.12;35.49
50933;BME280;36921;49.006;9.292;2023-03-01T13:49:14;98968.00;;;17.16;35.68
50933;BME280;36921;49.006;9.292;2023-03-01T13:51:46;98941.81;;;17.32;35.46
50933;BME280;36921;49.006;9.292;2023-03-01T13:54:14;98961.91;;;17.26;35.71
50933;BME280;36921;49.006;9.292;2023-03-01T13:56:40;98963.44;;;16.70;36.02
50933;BME280;36921;49.006;9.292;2023-03-01T13:59:13;98957.97;;;16.81;36.81
50933;BME280;36921;49.006;9.292;2023-03-01T14:01:39;98961.28;;;16.01;37.52
50933;BME280;36921;49.006;9.292;2023-03-01T14:04:20;98958.78;;;16.82;36.34
50933;BME280;36921;49.006;9.292;2023-03-01T14:06:46;98963.91;;;16.31;37.61
50933;BME280;36921;49.006;9.292;2023-03-01T14:09:21;98954.53;;;16.39;37.01
50933;BME280;36921;49.006;9.292;2023-03-01T14:14:45;98961.22;;;14.80;39.70
50933;BME280;36921;49.006;9.292;2023-03-01T14:20:18;98958.19;;;15.07;39.20
50933;BME280;36921;49.006;9.292;2023-03-01T14:22:46;98960.28;;;14.24;40.23
50933;BME280;36921;49.006;9.292;2023-03-01T14:25:20;98958.72;;;13.53;40.93
50933;BME280;36921;49.006;9.292;2023-03-01T14:27:54;98951.13;;;13.30;41.43
50933;BME280;36921;49.006;9.292;2023-03-01T14:30:30;98967.94;;;13.52;41.07
50933;BME280;36921;49.006;9.292;2023-03-01T14:32:58;98961.81;;;13.64;41.98
50933;BME280;36921;49.006;9.292;2023-03-01T14:35:27;98965.13;;;13.97;41.34
50933;BME280;36921;49.006;9.292;2023-03-01T14:37:53;98947.69;;;14.05;40.98
50933;BME280;36921;49.006;9.292;2023-03-01T14:40:24;98975.97;;;14.54;40.16
50933;BME280;36921;49.006;9.292;2023-03-01T14:42:50;98980.50;;;14.97;39.99
50933;BME280;36921;49.006;9.292;2023-03-01T14:45:16;98992.09;;;14.24;40.11
50933;BME280;36921;49.006;9.292;2023-03-01T14:47:43;98986.16;;;14.34;39.58
50933;BME280;36921;49.006;9.292;2023-03-01T14:50:20;98969.22;;;13.50;41.03